Time;durP1;ratioP1;P1;durP2;ratioP2;P2;SDS_P1;SDS_P2;PMS_P1;PMS_P2;Temp;Humidity;BMP_temperature;BMP_pressure;BME280_temperature;BME280_humidity;BME280_pressure;Samples;Min_cycle;Max_cycle;Signal;HPM_P1;HPM_P2
2022/07/15 00:01:15;;;;;;;;;5.80;4.80;;;;;24.69;36.88;101506.97;4996881;28;45602;-52
2022/07/15 00:03:40;;;;;;;;;5.25;5.00;;;;;24.86;36.98;101511.41;4996535;28;45224;-55
2022/07/15 00:06:06;;;;;;;;;7.50;7.50;;;;;24.80;37.49;101510.56;4996590;28;45278;-53
2022/07/15 00:08:31;;;;;;;;;11.75;9.00;;;;;24.51;37.38;101469.19;4996776;28;45442;-57
2022/07/15 00:10:57;;;;;;;;;11.25;11.25;;;;;24.64;37.51;101506.97;4994861;28;45974;-54
2022/07/15 00:13:24;;;;;;;;;12.25;10.75;;;;;24.37;37.83;101485.81;4996364;28;45469;-53
2022/07/15 00:15:50;;;;;;;;;9.80;9.40;;;;;24.54;37.53;101516.28;4996342;28;45407;-55
2022/07/15 00:18:15;;;;;;;;;9.75;9.75;;;;;24.48;37.42;101512.69;4996594;28;45313;-55
2022/07/15 00:20:41;;;;;;;;;10.25;10.25;;;;;24.45;37.82;101516.06;4996532;28;45345;-54
2022/07/15 00:23:07;;;;;;;;;9.20;9.00;;;;;24.53;37.33;101513.78;4995866;28;45441;-55
2022/07/15 00:25:32;;;;;;;;;11.75;9.75;;;;;24.62;37.25;101526.94;4995324;28;45432;-57
2022/07/15 00:28:03;;;;;;;;;7.50;7.00;;;;;24.00;38.00;101447.81;4995466;28;45483;-58
2022/07/15 00:30:36;;;;;;;;;9.20;9.20;;;;;24.42;37.85;101529.81;4994861;28;47509;-57
2022/07/15 00:33:02;;;;;;;;;10.20;9.20;;;;;24.48;37.65;101531.47;4996288;28;45375;-56
2022/07/15 00:35:29;;;;;;;;;8.00;8.00;;;;;24.35;37.69;101524.53;4996179;28;45507;-55
2022/07/15 00:37:54;;;;;;;;;5.40;5.40;;;;;24.32;37.67;101525.94;4995198;28;45404;-57
2022/07/15 00:40:20;;;;;;;;;8.50;6.00;;;;;24.30;38.22;101536.63;4996377;28;45942;-52
2022/07/15 00:42:45;;;;;;;;;6.50;6.50;;;;;24.14;37.95;101519.00;4995814;28;45318;-58
2022/07/15 00:45:16;;;;;;;;;5.00;5.00;;;;;24.04;38.86;101541.41;4996180;28;45287;-54
2022/07/15 00:47:45;;;;;;;;;5.60;5.60;;;;;23.94;38.58;101545.94;4996523;28;45366;-57
2022/07/15 00:50:11;;;;;;;;;8.00;6.00;;;;;24.02;38.62;101541.69;5027713;28;45520;-57
2022/07/15 00:52:39;;;;;;;;;8.20;5.40;;;;;24.00;39.10;101549.56;5027830;28;45394;-53
2022/07/15 00:55:06;;;;;;;;;6.20;6.20;;;;;24.02;38.77;101549.28;4994734;28;45442;-55
2022/07/15 00:57:31;;;;;;;;;9.20;9.20;;;;;23.75;39.16;101522.44;5011306;28;45507;-57
2022/07/15 00:59:57;;;;;;;;;8.75;8.75;;;;;24.06;38.68;101550.41;5011299;28;46550;-54
2022/07/15 01:02:22;;;;;;;;;7.50;7.50;;;;;24.15;38.79;101559.94;5010902;28;45272;-58
2022/07/15 01:04:48;;;;;;;;;8.00;8.00;;;;;23.90;39.37;101549.59;4994359;28;45335;-52
2022/07/15 01:07:14;;;;;;;;;10.25;9.00;;;;;23.99;38.63;101552.63;5011419;28;45366;-57
2022/07/15 01:09:39;;;;;;;;;9.75;9.75;;;;;23.98;39.11;101562.19;5028375;28;45825;-59
2022/07/15 01:12:05;;;;;;;;;9.75;7.50;;;;;23.96;38.81;101559.69;5014566;28;45323;-55
2022/07/15 01:14:31;;;;;;;;;7.60;6.20;;;;;23.90;38.99;101563.63;5030853;28;45611;-58
2022/07/15 01:16:56;;;;;;;;;10.25;7.00;;;;;23.93;39.12;101571.44;4999507;28;45715;-55
2022/07/15 01:19:22;;;;;;;;;9.50;6.50;;;;;23.73;39.97;101572.31;4998657;28;46670;-58
2022/07/15 01:21:47;;;;;;;;;7.50;7.00;;;;;23.48;39.88;101560.00;5031003;28;45460;-58
2022/07/15 01:24:12;;;;;;;;;6.25;6.25;;;;;23.43;40.34;101580.44;5030930;28;45466;-53
2022/07/15 01:26:38;;;;;;;;;7.00;7.00;;;;;23.19;39.86;101524.09;4999251;28;45913;-58
2022/07/15 01:29:03;;;;;;;;;6.25;6.25;;;;;23.54;40.08;101570.91;4998823;28;46614;-51
2022/07/15 01:31:29;;;;;;;;;7.25;6.25;;;;;23.47;39.98;101566.72;4997581;28;45357;-55
2022/07/15 01:33:54;;;;;;;;;8.25;6.25;;;;;23.52;39.69;101572.31;4999183;28;45353;-57
2022/07/15 01:36:20;;;;;;;;;8.00;7.00;;;;;23.28;39.39;101516.84;4998921;28;45311;-54
2022/07/15 01:38:46;;;;;;;;;11.00;9.40;;;;;23.33;39.66;101533.69;5030291;28;46694;-58
2022/07/15 01:41:11;;;;;;;;;8.25;6.25;;;;;23.55;39.63;101566.97;4997309;28;45394;-57
2022/07/15 01:43:37;;;;;;;;;4.00;3.00;;;;;23.21;39.71;101547.06;4998930;28;45360;-54
2022/07/15 01:46:02;;;;;;;;;4.00;3.50;;;;;23.38;39.34;101572.84;4997399;28;45359;-58
2022/07/15 01:51:11;;;;;;;;;3.00;3.00;;;;;23.37;38.82;101573.97;4998568;28;45383;-57
2022/07/15 01:53:37;;;;;;;;;4.75;4.75;;;;;23.05;39.04;101546.22;4998567;28;45369;-59
2022/07/15 01:56:03;;;;;;;;;6.25;4.50;;;;;23.03;39.27;101580.06;4999094;28;45454;-60
2022/07/15 01:58:29;;;;;;;;;5.75;4.00;;;;;23.00;39.06;101578.66;4998440;28;45329;-55
2022/07/15 02:00:54;;;;;;;;;3.25;3.25;;;;;23.01;38.92;101569.13;4973078;28;46205;-58
2022/07/15 02:03:19;;;;;;;;;2.25;2.25;;;;;22.91;39.55;101573.88;5018213;28;45265;-55
2022/07/15 02:05:45;;;;;;;;;4.00;4.00;;;;;22.77;39.46;101579.16;5034075;28;45365;-58
2022/07/15 02:08:10;;;;;;;;;4.00;3.00;;;;;22.49;39.76;101534.56;5018335;28;46616;-59
2022/07/15 02:10:42;;;;;;;;;3.75;3.75;;;;;22.60;39.67;101558.69;5017980;28;45424;-52
2022/07/15 02:13:08;;;;;;;;;4.00;2.60;;;;;22.56;39.62;101565.94;5018573;28;45352;-55
2022/07/15 02:15:34;;;;;;;;;3.40;3.40;;;;;22.67;39.65;101566.81;5049949;28;45678;-58
2022/07/15 02:17:59;;;;;;;;;3.00;3.00;;;;;22.53;39.58;101551.66;5049264;28;46653;-55
2022/07/15 02:20:25;;;;;;;;;3.25;3.25;;;;;22.48;39.58;101570.06;5017479;28;45516;-57
2022/07/15 02:22:50;;;;;;;;;2.00;1.75;;;;;22.52;39.47;101573.19;5033176;28;45453;-58
2022/07/15 02:25:16;;;;;;;;;2.50;2.00;;;;;22.38;39.42;101563.56;5018164;28;45819;-51
2022/07/15 02:27:41;;;;;;;;;4.00;4.00;;;;;22.29;39.69;101568.84;5017566;28;46733;-58
2022/07/15 02:30:07;;;;;;;;;4.75;3.00;;;;;22.27;39.57;101557.94;5016157;28;45531;-55
2022/07/15 02:32:33;;;;;;;;;3.60;3.60;;;;;22.31;39.43;101558.25;5016549;28;45437;-57
2022/07/15 02:34:58;;;;;;;;;2.00;2.00;;;;;22.34;39.51;101564.13;5017608;28;45332;-58
2022/07/15 02:37:24;;;;;;;;;3.75;3.75;;;;;22.46;39.21;101568.66;5017640;28;45707;-53
2022/07/15 02:39:49;;;;;;;;;4.00;4.00;;;;;22.53;39.42;101571.22;5003042;28;45347;-59
2022/07/15 02:42:15;;;;;;;;;3.75;3.75;;;;;22.40;39.04;101559.41;4997783;28;45383;-54
2022/07/15 02:44:40;;;;;;;;;2.75;2.75;;;;;22.21;39.09;101529.09;4997850;28;45508;-52
2022/07/15 02:47:06;;;;;;;;;4.00;3.00;;;;;22.39;39.14;101563.31;4997665;28;46698;-58
2022/07/15 02:49:32;;;;;;;;;3.60;2.80;;;;;22.34;39.11;101563.28;4997626;28;45537;-52
2022/07/15 02:51:57;;;;;;;;;3.75;3.75;;;;;22.47;39.12;101567.56;4997976;28;45365;-58
2022/07/15 02:54:22;;;;;;;;;4.00;2.00;;;;;22.51;39.16;101577.09;4996640;28;45493;-55
2022/07/15 02:56:48;;;;;;;;;2.75;2.75;;;;;22.50;38.92;101560.56;4997635;28;46651;-52
2022/07/15 02:59:13;;;;;;;;;2.25;2.25;;;;;22.59;39.44;101582.19;4997378;28;45264;-58
2022/07/15 03:01:39;;;;;;;;;3.75;3.75;;;;;22.51;38.70;101579.03;4996198;28;45385;-55
2022/07/15 03:04:04;;;;;;;;;5.25;3.75;;;;;22.46;39.11;101588.22;4997784;28;45306;-58
2022/07/15 03:06:30;;;;;;;;;3.00;3.00;;;;;22.50;38.72;101585.75;4997390;28;46470;-58
2022/07/15 03:08:55;;;;;;;;;3.25;2.75;;;;;22.50;39.09;101588.53;4995933;28;45514;-53
2022/07/15 03:11:21;;;;;;;;;4.00;4.00;;;;;22.38;39.03;101585.94;4997454;28;45406;-58
2022/07/15 03:13:46;;;;;;;;;4.75;2.50;;;;;22.11;39.32;101562.63;4996760;28;45329;-52
2022/07/15 03:16:12;;;;;;;;;4.50;3.00;;;;;21.89;39.28;101526.44;4997347;28;46661;-57
2022/07/15 03:18:37;;;;;;;;;3.75;2.75;;;;;22.14;39.34;101578.00;4997109;28;45343;-60
2022/07/15 03:21:03;;;;;;;;;2.25;2.25;;;;;21.89;39.58;101549.59;4997464;28;45323;-55
2022/07/15 03:23:28;;;;;;;;;3.75;3.25;;;;;22.23;39.47;101592.28;4997678;28;45212;-58
2022/07/15 03:25:54;;;;;;;;;3.00;3.00;;;;;22.07;39.43;101583.81;4997197;28;45744;-53
2022/07/15 03:28:20;;;;;;;;;2.25;1.75;;;;;22.11;39.31;101596.16;4995794;28;45305;-54
2022/07/15 03:30:45;;;;;;;;;2.80;2.80;;;;;22.06;39.51;101587.72;4997299;28;45225;-57
2022/07/15 03:33:11;;;;;;;;;3.00;3.00;;;;;22.07;39.71;101586.63;4996954;28;45364;-55
2022/07/15 03:35:37;;;;;;;;;2.00;2.00;;;;;21.95;39.74;101575.66;4996919;28;46068;-58
2022/07/15 03:38:02;;;;;;;;;4.50;3.50;;;;;22.00;39.74;101580.41;4997206;28;45256;-53
2022/07/15 03:40:27;;;;;;;;;2.50;2.50;;;;;22.05;39.62;101580.47;4997067;28;45434;-55
2022/07/15 03:42:53;;;;;;;;;3.75;3.75;;;;;22.02;39.57;101579.03;4997069;28;45266;-58
2022/07/15 03:45:18;;;;;;;;;3.50;2.50;;;;;22.12;39.36;101580.22;4996703;28;45547;-56
2022/07/15 03:47:44;;;;;;;;;4.00;3.00;;;;;22.05;39.32;101564.53;4997103;28;45368;-60
2022/07/15 03:50:09;;;;;;;;;3.25;3.00;;;;;21.95;39.64;101567.25;4997071;28;45369;-56
2022/07/15 03:52:35;;;;;;;;;4.00;4.00;;;;;21.85;39.91;101570.81;4962315;28;45802;-51
2022/07/15 03:55:00;;;;;;;;;5.00;3.00;;;;;21.87;39.69;101578.94;4996341;28;46363;-59
2022/07/15 03:57:26;;;;;;;;;2.75;2.75;;;;;21.88;39.84;101577.84;4996512;28;45400;-51
2022/07/15 03:59:52;;;;;;;;;8.50;4.25;;;;;21.84;39.95;101585.91;5028725;28;45393;-58
2022/07/15 04:02:18;;;;;;;;;5.00;5.00;;;;;21.62;40.08;101574.81;4996844;28;45390;-54
2022/07/15 04:04:43;;;;;;;;;2.75;2.75;;;;;21.55;40.38;101571.41;4996767;28;45601;-57
2022/07/15 04:07:09;;;;;;;;;3.50;3.50;;;;;21.45;40.09;101547.03;5028546;28;45376;-58
2022/07/15 04:09:34;;;;;;;;;2.50;2.00;;;;;21.74;40.25;101583.88;4996644;28;45409;-54
2022/07/15 04:11:59;;;;;;;;;4.00;4.00;;;;;21.60;40.33;101561.09;4996191;28;45607;-57
2022/07/15 04:14:25;;;;;;;;;4.75;4.75;;;;;21.75;40.30;101599.53;4996391;28;46350;-57
2022/07/15 04:16:51;;;;;;;;;3.25;3.25;;;;;21.77;40.15;101591.72;4996176;28;45405;-55
2022/07/15 04:19:16;;;;;;;;;2.25;2.25;;;;;21.74;40.54;101594.19;5027647;28;45306;-59
2022/07/15 04:21:42;;;;;;;;;3.50;3.25;;;;;21.77;40.62;101596.47;4996347;28;45373;-51
2022/07/15 04:24:07;;;;;;;;;5.25;5.25;;;;;21.74;40.54;101592.25;4996073;28;45815;-58
2022/07/15 04:26:33;;;;;;;;;4.75;4.00;;;;;21.82;40.77;101599.28;4996169;28;45846;-57
2022/07/15 04:28:58;;;;;;;;;5.00;3.50;;;;;21.80;40.78;101595.94;5027920;28;45368;-53
2022/07/15 04:31:24;;;;;;;;;3.75;3.00;;;;;21.82;40.33;101593.69;4996396;28;45515;-58
2022/07/15 04:33:49;;;;;;;;;4.25;4.25;;;;;21.85;40.69;101589.53;4996015;28;45823;-55
2022/07/15 04:36:15;;;;;;;;;1.75;1.75;;;;;21.73;40.70;101593.38;4995825;28;45335;-57
2022/07/15 04:38:40;;;;;;;;;4.25;4.25;;;;;21.48;41.04;101568.81;5027981;28;45314;-53
2022/07/15 04:41:06;;;;;;;;;6.25;4.75;;;;;21.79;40.91;101611.00;4996318;28;45266;-55
2022/07/15 04:43:31;;;;;;;;;4.00;4.00;;;;;21.79;41.01;101614.63;4994720;28;45491;-57
2022/07/15 04:45:57;;;;;;;;;4.00;3.75;;;;;21.40;41.56;101575.75;4994231;28;45283;-54
2022/07/15 04:51:06;;;;;;;;;5.60;5.60;;;;;21.28;41.81;101577.88;4995932;28;45408;-57
2022/07/15 04:53:32;;;;;;;;;4.75;4.75;;;;;21.59;41.41;101609.69;4978258;28;45485;-53
2022/07/15 04:55:57;;;;;;;;;7.00;5.00;;;;;21.50;41.83;101602.94;4994053;28;45474;-51
2022/07/15 04:58:23;;;;;;;;;4.25;4.25;;;;;21.30;41.69;101589.59;4995962;28;45465;-59
2022/07/15 05:00:48;;;;;;;;;5.25;5.25;;;;;21.44;42.21;101613.19;4995892;28;45426;-51
2022/07/15 05:03:14;;;;;;;;;5.00;4.25;;;;;21.50;41.97;101625.28;4994601;28;45669;-59
2022/07/15 05:05:39;;;;;;;;;4.50;4.50;;;;;21.53;42.06;101613.56;4995356;28;45185;-55
2022/07/15 05:08:06;;;;;;;;;6.50;5.25;;;;;21.55;42.14;101616.09;4996045;28;45730;-57
2022/07/15 05:10:31;;;;;;;;;5.00;5.00;;;;;21.47;41.77;101621.06;4995585;28;45259;-57
2022/07/15 05:12:57;;;;;;;;;4.50;4.00;;;;;21.53;42.13;101627.50;4993830;28;45388;-54
2022/07/15 05:15:23;;;;;;;;;9.25;7.25;;;;;21.48;42.27;101621.88;4995783;28;45223;-59
2022/07/15 05:17:48;;;;;;;;;4.25;4.00;;;;;21.43;42.28;101633.84;4995875;28;45444;-53
2022/07/15 05:20:14;;;;;;;;;4.25;4.00;;;;;21.14;42.65;101600.63;4994588;28;45454;-60
2022/07/15 05:22:39;;;;;;;;;4.25;3.00;;;;;21.40;42.59;101631.59;4995101;28;45861;-56
2022/07/15 05:25:05;;;;;;;;;5.25;4.00;;;;;21.50;42.70;101636.44;4995196;28;45394;-53
2022/07/15 05:27:31;;;;;;;;;6.60;5.40;;;;;21.44;42.71;101641.09;4994203;28;45886;-58
2022/07/15 05:29:56;;;;;;;;;6.75;5.00;;;;;21.40;42.65;101637.19;4995581;28;45552;-53
2022/07/15 05:32:21;;;;;;;;;4.00;4.00;;;;;21.34;43.01;101638.22;4995036;28;45829;-58
2022/07/15 05:34:47;;;;;;;;;7.00;5.50;;;;;21.21;43.14;101634.75;4995323;28;45434;-55
2022/07/15 05:37:12;;;;;;;;;4.75;4.00;;;;;21.09;43.41;101645.22;4995157;28;45452;-55
2022/07/15 05:39:53;;;;;;;;;5.00;5.00;;;;;21.05;43.64;101646.81;4995232;28;45537;-59
2022/07/15 05:42:19;;;;;;;;;4.20;4.20;;;;;21.13;43.46;101650.00;4994566;28;45663;-57
2022/07/15 05:44:44;;;;;;;;;5.60;4.60;;;;;21.26;43.21;101657.13;4994100;28;45992;-54
2022/07/15 05:47:10;;;;;;;;;4.75;4.00;;;;;21.38;43.07;101650.53;5027127;28;45393;-53
2022/07/15 05:49:35;;;;;;;;;5.25;5.25;;;;;21.37;43.35;101655.28;4995503;28;45828;-58
2022/07/15 05:52:01;;;;;;;;;5.75;5.00;;;;;21.43;43.16;101658.97;4994872;28;46858;-55
2022/07/15 05:54:26;;;;;;;;;7.25;5.00;;;;;21.26;43.41;101629.22;4995038;28;45440;-57
2022/07/15 05:56:52;;;;;;;;;5.50;5.25;;;;;21.36;43.72;101659.16;4998230;28;45548;-53
2022/07/15 05:59:17;;;;;;;;;4.50;4.50;;;;;21.24;43.67;101655.72;4998379;28;45573;-53
2022/07/15 06:01:43;;;;;;;;;8.50;6.50;;;;;21.07;43.87;101639.88;4998106;28;46022;-57
2022/07/15 06:04:08;;;;;;;;;5.75;4.75;;;;;21.07;44.25;101644.63;4998581;28;45373;-53
2022/07/15 06:06:34;;;;;;;;;5.50;5.50;;;;;21.29;43.74;101663.28;4998438;28;45333;-57
2022/07/15 06:08:59;;;;;;;;;7.50;6.00;;;;;21.22;44.53;101663.47;4998136;28;45728;-54
2022/07/15 06:11:25;;;;;;;;;5.75;4.75;;;;;21.17;43.96;101649.50;4998526;28;45404;-56
2022/07/15 06:13:50;;;;;;;;;9.00;6.50;;;;;20.78;44.31;101597.38;4998570;28;45363;-59
2022/07/15 06:16:16;;;;;;;;;4.75;4.75;;;;;21.33;43.97;101670.88;4998404;28;45326;-55
2022/07/15 06:18:42;;;;;;;;;5.25;5.25;;;;;21.37;43.65;101662.81;4998729;28;45198;-58
2022/07/15 06:21:07;;;;;;;;;5.50;4.50;;;;;21.37;44.14;101665.59;4998252;28;46044;-51
2022/07/15 06:23:33;;;;;;;;;9.50;7.25;;;;;21.29;43.82;101640.97;4998306;28;45161;-58
2022/07/15 06:25:58;;;;;;;;;6.00;5.00;;;;;21.12;43.69;101613.97;5013445;28;45329;-57
2022/07/15 06:28:23;;;;;;;;;6.00;4.50;;;;;21.60;43.51;101670.03;4998639;28;45391;-54
2022/07/15 06:30:49;;;;;;;;;5.25;5.00;;;;;21.46;43.62;101658.44;4998202;28;46379;-60
2022/07/15 06:33:14;;;;;;;;;8.00;7.00;;;;;21.47;43.75;101659.28;4998151;28;45369;-54
2022/07/15 06:35:40;;;;;;;;;8.75;7.00;;;;;21.26;43.51;101626.44;4998153;28;45444;-59
2022/07/15 06:38:05;;;;;;;;;5.00;5.00;;;;;21.60;43.30;101672.81;4998393;28;45737;-56
2022/07/15 06:40:31;;;;;;;;;5.00;4.25;;;;;21.49;42.95;101641.16;4996410;28;45622;-52
2022/07/15 06:42:56;;;;;;;;;7.00;5.25;;;;;21.69;42.95;101676.03;4997668;28;45531;-58
2022/07/15 06:45:22;;;;;;;;;7.25;5.25;;;;;21.42;42.99;101648.06;4998302;28;45432;-51
2022/07/15 06:47:47;;;;;;;;;5.00;4.25;;;;;21.71;42.89;101679.38;4996930;28;45438;-58
2022/07/15 06:50:13;;;;;;;;;6.00;5.00;;;;;21.26;42.55;101606.03;4997880;28;45693;-58
2022/07/15 06:52:39;;;;;;;;;4.20;4.20;;;;;21.66;42.48;101670.91;4997405;28;45220;-54
2022/07/15 06:55:05;;;;;;;;;6.75;5.25;;;;;21.46;42.91;101666.81;4996674;28;45334;-57
2022/07/15 06:57:30;;;;;;;;;6.80;6.80;;;;;21.71;42.91;101684.13;4996919;28;45280;-56
2022/07/15 06:59:56;;;;;;;;;5.00;5.00;;;;;21.66;42.74;101688.53;4997437;28;46119;-58
2022/07/15 07:02:22;;;;;;;;;5.60;5.60;;;;;21.36;42.85;101647.19;4980166;28;45209;-54
2022/07/15 07:04:48;;;;;;;;;6.50;5.50;;;;;21.61;42.68;101676.47;4996692;28;45250;-57
2022/07/15 07:07:13;;;;;;;;;7.25;6.25;;;;;21.67;42.58;101672.63;4996865;28;45537;-58
2022/07/15 07:09:39;;;;;;;;;5.25;5.25;;;;;21.78;42.41;101663.25;4997077;28;45890;-54
2022/07/15 07:12:05;;;;;;;;;7.25;4.75;;;;;21.95;42.09;101679.03;4997330;28;45476;-57
2022/07/15 07:14:30;;;;;;;;;4.40;4.40;;;;;22.02;41.29;101685.25;4997472;28;45421;-55
2022/07/15 07:16:56;;;;;;;;;6.50;6.50;;;;;21.71;41.37;101631.06;4997216;28;45377;-58
2022/07/15 07:19:21;;;;;;;;;7.50;5.25;;;;;22.06;40.72;101689.22;4995715;28;45500;-54
2022/07/15 07:21:47;;;;;;;;;5.25;4.00;;;;;22.02;40.62;101684.38;4964545;28;45428;-52
2022/07/15 07:24:12;;;;;;;;;5.00;5.00;;;;;21.88;40.69;101647.69;4997164;28;45367;-58
2022/07/15 07:26:38;;;;;;;;;4.75;4.75;;;;;22.01;40.37;101675.19;4997265;28;45363;-51
2022/07/15 07:29:03;;;;;;;;;6.00;3.75;;;;;21.57;40.00;101569.19;4997138;28;45634;-58
2022/07/15 07:31:29;;;;;;;;;3.75;3.75;;;;;22.26;39.48;101678.44;5011862;28;45473;-54
2022/07/15 07:33:55;;;;;;;;;6.00;3.75;;;;;22.39;39.65;101665.94;5012130;28;45395;-56
2022/07/15 07:36:21;;;;;;;;;5.00;3.20;;;;;22.12;39.24;101625.78;4997044;28;45373;-57
2022/07/15 07:38:46;;;;;;;;;3.25;3.25;;;;;22.42;38.64;101648.63;5028892;28;45577;-51
2022/07/15 07:41:11;;;;;;;;;3.00;3.00;;;;;22.52;38.57;101659.88;5012041;28;45889;-60
2022/07/15 07:43:38;;;;;;;;;5.00;4.00;;;;;22.54;38.92;101670.81;4996639;28;45398;-55
2022/07/15 07:46:04;;;;;;;;;6.00;4.80;;;;;22.36;38.49;101632.94;4996017;28;45469;-60
2022/07/15 07:48:30;;;;;;;;;3.50;3.50;;;;;22.59;38.46;101668.03;4978934;28;47929;-60
2022/07/15 07:50:56;;;;;;;;;4.60;4.20;;;;;22.53;39.01;101667.19;4995390;28;45395;-60
2022/07/15 07:53:21;;;;;;;;;3.25;3.25;;;;;22.41;38.75;101627.38;4996812;28;45526;-56
2022/07/15 07:55:48;;;;;;;;;4.25;4.00;;;;;22.47;38.60;101629.09;4996748;28;45377;-52
2022/07/15 07:58:15;;;;;;;;;4.20;3.80;;;;;22.72;37.72;101653.56;4996463;28;46711;-58
2022/07/15 08:00:41;;;;;;;;;5.60;4.00;;;;;22.71;37.65;101660.28;4995105;28;45814;-54
2022/07/15 08:03:06;;;;;;;;;4.00;3.00;;;;;22.82;37.18;101655.56;4996543;28;45256;-61
2022/07/15 08:05:32;;;;;;;;;4.00;3.00;;;;;22.79;37.00;101655.28;4995848;28;45201;-54
2022/07/15 08:08:17;;;;;;;;;4.00;4.00;;;;;22.78;37.49;101660.00;4994951;28;45667;-60
2022/07/15 08:10:44;;;;;;;;;6.20;6.20;;;;;22.77;36.93;101647.16;4996573;28;45371;-60
2022/07/15 08:13:10;;;;;;;;;4.00;4.00;;;;;22.93;36.75;101650.03;4995431;28;45442;-58
2022/07/15 08:15:35;;;;;;;;;3.25;3.25;;;;;22.98;37.11;101653.69;4996779;28;45562;-62
2022/07/15 08:18:04;;;;;;;;;6.75;6.75;;;;;23.09;36.70;101648.94;4995003;28;46190;-58
2022/07/15 08:20:29;;;;;;;;;5.80;5.00;;;;;23.02;36.96;101624.00;4961796;28;45460;-56
2022/07/15 08:22:58;;;;;;;;;3.50;2.25;;;;;23.25;35.83;101638.63;5023517;28;45264;-62
2022/07/15 08:25:31;;;;;;;;;5.00;2.20;;;;;22.98;35.79;101602.44;5016533;28;45168;-61
2022/07/15 08:27:58;;;;;;;;;2.00;2.00;;;;;23.32;35.19;101645.97;5015965;28;45417;-55
2022/07/15 08:30:24;;;;;;;;;4.80;3.80;;;;;23.16;35.50;101620.72;5047894;28;45557;-58
2022/07/15 08:32:50;;;;;;;;;6.40;1.80;;;;;23.21;35.27;101626.28;5016019;28;45396;-53
2022/07/15 08:35:16;;;;;;;;;4.00;2.00;;;;;23.43;34.77;101661.69;5010470;28;45488;-57
2022/07/15 08:37:41;;;;;;;;;2.75;2.75;;;;;23.27;35.41;101629.97;4995922;28;45396;-55
2022/07/15 08:40:10;;;;;;;;;3.00;3.00;;;;;23.28;35.32;101637.25;4996411;28;45353;-59
2022/07/15 08:42:39;;;;;;;;;4.80;4.00;;;;;23.44;35.31;101651.28;5027305;28;45431;-57
2022/07/15 08:45:06;;;;;;;;;3.00;3.00;;;;;23.29;34.92;101633.31;5027288;28;45485;-60
2022/07/15 08:47:32;;;;;;;;;3.00;3.00;;;;;23.39;35.27;101652.13;4995919;28;46790;-58
2022/07/15 08:49:57;;;;;;;;;3.40;2.40;;;;;23.26;35.09;101636.69;4994607;28;45471;-58
2022/07/15 08:52:23;;;;;;;;;4.00;4.00;;;;;23.26;35.29;101631.91;5028225;28;45293;-56
2022/07/15 08:54:49;;;;;;;;;3.40;3.40;;;;;23.42;35.32;101646.81;5028120;28;45377;-59
2022/07/15 08:57:14;;;;;;;;;3.00;3.00;;;;;23.50;34.51;101648.25;5011287;28;46603;-57
2022/07/15 08:59:42;;;;;;;;;4.75;3.50;;;;;23.41;34.92;101621.88;4996161;28;45279;-57
2022/07/15 09:02:07;;;;;;;;;4.00;4.00;;;;;23.27;35.10;101615.97;5027325;28;45423;-57
2022/07/15 09:04:33;;;;;;;;;3.75;3.75;;;;;23.18;34.96;101596.06;5028056;28;45348;-56
2022/07/15 09:07:02;;;;;;;;;4.50;4.50;;;;;23.47;35.18;101639.56;4996071;28;45606;-59
2022/07/15 09:09:32;;;;;;;;;5.00;4.00;;;;;23.55;34.20;101628.63;4995806;28;45515;-59
2022/07/15 09:11:59;;;;;;;;;3.00;3.00;;;;;23.59;34.36;101630.88;4995953;28;45354;-55
2022/07/15 09:14:28;;;;;;;;;4.00;4.00;;;;;23.65;34.48;101643.75;4996357;28;45596;-59
2022/07/15 09:17:11;;;;;;;;;2.00;2.00;;;;;23.43;34.05;101602.84;4995869;28;47013;-57
2022/07/15 09:20:09;;;;;;;;;3.80;2.20;;;;;23.69;34.27;101634.50;4994054;28;45503;-56
2022/07/15 09:22:48;;;;;;;;;3.00;2.40;;;;;23.69;34.22;101651.31;4976671;28;45458;-58
2022/07/15 09:25:13;;;;;;;;;2.00;2.00;;;;;23.73;33.38;101637.59;4996027;28;45764;-59
2022/07/15 09:27:40;;;;;;;;;4.00;3.00;;;;;23.66;33.22;101629.47;4995746;28;47182;-57
2022/07/15 09:36:03;;;;;;;;;2.00;2.00;;;;;23.93;33.73;101630.31;4999560;28;45393;-58
2022/07/15 09:38:35;;;;;;;;;17.00;14.00;;;;;23.96;32.94;101630.59;4983769;28;45956;-59
2022/07/15 09:41:01;;;;;;;;;2.20;2.20;;;;;24.00;32.77;101632.84;4998764;28;45240;-59
2022/07/15 09:43:27;;;;;;;;;2.75;2.75;;;;;23.78;32.88;101594.72;4999059;28;45539;-57
2022/07/15 09:45:59;;;;;;;;;3.60;2.20;;;;;23.99;32.71;101614.31;5030950;28;45389;-59
2022/07/15 09:48:28;;;;;;;;;2.40;1.60;;;;;23.96;32.77;101613.75;4998719;28;46719;-60
2022/07/15 09:50:59;;;;;;;;;2.80;2.40;;;;;23.92;33.05;101580.97;4997234;28;45189;-55
2022/07/15 09:53:25;;;;;;;;;3.60;3.60;;;;;23.85;32.76;101564.44;5029932;28;45322;-55
2022/07/15 09:55:51;;;;;;;;;5.00;3.75;;;;;24.28;31.82;101624.97;5014598;28;45507;-54
2022/07/15 09:58:18;;;;;;;;;3.20;2.80;;;;;24.28;31.62;101625.78;5013695;28;46804;-54
2022/07/15 10:00:43;;;;;;;;;1.40;1.40;;;;;24.20;31.18;101618.81;5030476;28;45659;-53
2022/07/15 10:03:08;;;;;;;;;1.50;1.00;;;;;24.03;31.78;101581.78;5014202;28;45410;-53
2022/07/15 10:05:34;;;;;;;;;2.00;1.00;;;;;24.29;30.99;101599.44;5013953;28;45682;-50
2022/07/15 10:08:00;;;;;;;;;2.50;2.50;;;;;24.37;30.98;101600.81;5030335;28;46182;-54
2022/07/15 10:10:26;;;;;;;;;1.60;0.60;;;;;24.29;30.78;101596.66;4991415;28;45378;-54
2022/07/15 10:13:16;;;;;;;;;2.00;1.00;;;;;24.22;30.48;101585.72;4975362;28;45589;-53
2022/07/15 10:16:05;;;;;;;;;3.00;3.00;;;;;24.45;29.89;101611.44;4972175;28;45400;-54
2022/07/15 10:18:31;;;;;;;;;1.20;1.20;;;;;24.52;29.75;101610.28;4990959;28;46699;-53
2022/07/15 10:21:15;;;;;;;;;3.50;2.00;;;;;24.55;29.38;101609.72;4976050;28;45546;-54
2022/07/15 10:24:05;;;;;;;;;3.60;1.60;;;;;24.62;29.52;101599.03;5043068;28;45507;-56
2022/07/15 10:26:58;;;;;;;;;1.40;1.40;;;;;24.43;29.76;101574.41;4999197;28;45361;-51
2022/07/15 10:29:24;;;;;;;;;0.20;0.20;;;;;24.71;28.91;101590.88;5013542;28;46991;-55
2022/07/15 10:31:57;;;;;;;;;1.00;0.00;;;;;24.69;28.59;101599.56;5045472;28;45764;-52
2022/07/15 10:34:23;;;;;;;;;0.80;0.80;;;;;24.70;28.18;101587.22;5043589;28;45645;-51
2022/07/15 10:36:56;;;;;;;;;2.50;1.75;;;;;24.76;28.89;101594.47;5011549;28;45954;-56
2022/07/15 10:39:26;;;;;;;;;0.80;0.80;;;;;24.82;28.47;101588.88;4992184;28;47706;-57
2022/07/15 10:41:51;;;;;;;;;1.00;1.00;;;;;24.74;28.17;101559.41;4989107;28;45939;-56
2022/07/15 10:44:17;;;;;;;;;2.00;2.00;;;;;24.89;28.06;101578.16;5013177;28;45450;-53
2022/07/15 10:46:42;;;;;;;;;1.00;1.00;;;;;24.82;28.19;101541.16;5036762;28;45584;-51
2022/07/15 10:49:08;;;;;;;;;1.00;1.00;;;;;25.10;28.68;101575.22;5028467;28;45763;-53
2022/07/15 10:51:37;;;;;;;;;1.75;1.00;;;;;25.19;28.23;101579.13;5009564;28;45471;-53
2022/07/15 10:54:17;;;;;;;;;2.00;2.00;;;;;25.23;28.35;101577.38;5011133;28;45480;-56
2022/07/15 10:56:44;;;;;;;;;2.60;2.00;;;;;25.15;27.65;101567.63;5013405;28;45436;-49
2022/07/15 10:59:11;;;;;;;;;2.40;0.40;;;;;25.25;28.03;101558.28;5026367;28;46950;-52
2022/07/15 11:01:38;;;;;;;;;1.80;1.20;;;;;25.28;28.21;101556.84;5012826;28;45548;-56
2022/07/15 11:04:17;;;;;;;;;0.40;0.40;;;;;25.21;27.11;101553.53;5012731;28;45776;-53
2022/07/15 11:07:01;;;;;;;;;1.00;1.00;;;;;25.32;27.57;101572.00;5008763;28;45616;-56
2022/07/15 11:09:51;;;;;;;;;2.60;2.00;;;;;25.36;27.07;101572.25;4993005;28;46424;-54
2022/07/15 11:12:28;;;;;;;;;2.20;1.20;;;;;25.38;27.80;101569.97;5004021;28;45467;-56
2022/07/15 11:14:53;;;;;;;;;2.00;0.40;;;;;25.27;27.27;101538.31;5010731;28;45837;-55
2022/07/15 11:17:28;;;;;;;;;3.00;1.00;;;;;25.48;27.21;101566.25;5013550;28;45426;-61
2022/07/15 11:20:14;;;;;;;;;1.60;1.60;;;;;25.52;27.02;101561.72;5012712;28;45801;-60
2022/07/15 11:22:45;;;;;;;;;0.40;0.40;;;;;25.59;27.60;101559.44;4979775;28;45969;-58
2022/07/15 11:25:30;;;;;;;;;2.00;2.00;;;;;25.41;27.08;101530.06;5027995;28;45425;-61
2022/07/15 11:28:00;;;;;;;;;2.20;1.40;;;;;25.49;27.14;101525.78;5041627;28;45445;-59
2022/07/15 11:30:27;;;;;;;;;2.40;1.20;;;;;25.61;26.74;101547.91;5010816;28;46677;-58
2022/07/15 11:32:57;;;;;;;;;1.00;1.00;;;;;25.68;27.48;101534.34;5044361;28;45794;-54
2022/07/15 11:35:22;;;;;;;;;1.20;1.20;;;;;25.77;27.01;101546.63;5009811;28;45456;-56